Tunapolis, Brazil
Current Conditions -  °F | °C
As of 1:00 AM on Monday 22 Dec 2014 (Local Time) from SBCH Reporting Station
Drizzle Drizzle  
Wind Chill: 64°   Ceiling: 100
Heat Index: 64°   Visibility: 0.93mi
Dew Point: 64°   Wind: 5mph
Humidity: 100%   Direction: 260°W
Pressure: 29.8"   Gusts: NA
Location:  26.97°S, 53.64°W
Report Text: SBCH 220300Z 26004KT 1500 -DZ BCFG OVC001 18/18 Q1009
Loading
Personal Weather Stations






























Interactive Weather Map New forecast layout! Learn more

10-Day Weather Forecast

Advertisements
Track Severe Weather on mobile